Terminal Aerodrome Forecast
Issued by NWS

Home | Current Version | Previous Version | Graphics & Text | Print | Product List | Glossary On
Versions: 1 2 3 4 5 6 7 8 9 10 11 12 13 14 15 16 17
000
FTUS45 KGGW 041123
TAFSDY
TAF
KSDY 041123Z 0412/0512 VRB05KT P6SM SCT200
     FM041800 19007KT P6SM BKN100
     FM050200 23006KT P6SM -SHSN OVC025
     FM050800 30008KT P6SM OVC045
      AMD LTD TO CLD VIS AND WIND=

USA.gov is the U.S. government's official web portal to all federal, state and local government web resources and services.